Flight Track Log - Related Links

Times and Time Zones

All times are in EDT time to prevent confusion due to time zone crossing. See the AAL2366 flight status page for this flight to view local times or setup timezone preferences in your user account.


Time Position Orientation Groundspeed Altitude Reporting Facility
EDT Latitude Longitude Course Direction KTS MPH feet Rate Location/Type
Fri 03:28:13 AM 33.9342 -118.4319 92° East 174 200 1,000  Level Los Angeles Center
Fri 03:29:13 AM 33.8819 -118.4647 208° Southwest 201 231 2,500 1,686 Climbing Los Angeles Center
Fri 03:30:00 AM 33.9279 -117.9256 92° East  Level Estimated
Fri 03:30:14 AM 33.8111 -118.4864 194° South 254 292 4,400  Level Los Angeles Center
Fri 03:31:00 AM 33.9226 -117.7648 92° East  Level Estimated
Fri 03:31:14 AM 33.7375 -118.5092 194° South 274 315 6,900  Level Los Angeles Center
Fri 03:32:00 AM 33.9171 -117.6040 92° East  Level Estimated
Fri 03:32:15 AM 33.6786 -118.4594 145° Southeast 296 341 9,200  Level Los Angeles Center
Fri 03:33:00 AM 33.9114 -117.4433 92° East  Level Estimated
Fri 03:33:15 AM 33.6497 -118.3622 110° East 310 357 10,900  Level Los Angeles Center
Fri 03:34:16 AM 33.6442 -118.2414 93° East 369 425 12,600 2,033 Climbing Los Angeles Center
Fri 03:35:16 AM 33.6447 -118.1108 90° East 391 450 15,000 2,500 Climbing Los Angeles Center
Fri 03:36:16 AM 33.6322 -117.9756 96° East 406 467 17,600 2,231 Climbing Los Angeles Center
Fri 03:37:17 AM 33.6186 -117.8325 96° East 428 493 19,500 2,033 Climbing Los Angeles Center
Fri 03:38:17 AM 33.6044 -117.6839 96° East 447 514 21,700 1,983 Climbing Los Angeles Center
Fri 03:39:18 AM 33.5892 -117.5314 97° East 457 526 23,500 1,835 Climbing Los Angeles Center
Fri 03:40:18 AM 33.5706 -117.3400 97° East 480 552 25,400 1,700 Climbing Los Angeles Center
Fri 03:41:18 AM 33.5536 -117.1772 97° East 490 564 26,900 1,388 Climbing Los Angeles Center
Fri 03:42:19 AM 33.5367 -117.0117 97° East 502 578 28,200 1,339 Climbing Los Angeles Center
Fri 03:43:19 AM 33.5192 -116.8419 97° East 507 583 29,600 1,488 Climbing Los Angeles Center
Fri 03:44:20 AM 33.5014 -116.6692 97° East 517 595 31,200 1,488 Climbing Los Angeles Center
Fri 03:45:20 AM 33.4856 -116.4989 96° East 517 595 32,600 1,250 Climbing Los Angeles Center
Fri 03:46:20 AM 33.4658 -116.3286 98° East 515 593 33,700 1,140 Climbing Los Angeles Center
Fri 03:47:21 AM 33.4469 -116.1575 97° East 515 593 34,900 1,091 Climbing Los Angeles Center
Fri 03:48:21 AM 33.4286 -115.9867 97° East 515 593 35,900 1,000 Climbing Los Angeles Center
Fri 03:49:21 AM 33.4083 -115.8153 98° East 515 593 36,900 545 Climbing Los Angeles Center
Fri 03:50:22 AM 33.3883 -115.6464 98° East 513 590 37,000  Climbing Los Angeles Center
Fri 03:51:22 AM 33.3686 -115.4764 98° East 513 590 36,900 -50 Descending Los Angeles Center
Fri 03:52:22 AM 33.3492 -115.3072 98° East 513 590 36,900 50 Level Los Angeles Center
Fri 03:53:23 AM 33.3292 -115.1383 98° East 512 589 37,000 50 Climbing Los Angeles Center
Fri 03:54:23 AM 33.3086 -114.9683 98° East 519 597 37,000  Level Los Angeles Center
Fri 03:55:23 AM 33.2906 -114.8006 97° East 515 593 37,000  Level Los Angeles Center
Fri 03:56:23 AM 33.2694 -114.6314 98° East 518 596 37,000  Level Los Angeles Center
Fri 03:57:24 AM 33.2489 -114.4622 98° East 519 597 37,000 -54 Level Los Angeles Center
Fri 03:58:14 AM 33.2356 -114.3319 97° East 514 592 36,900  Descending Albuquerque Center
Fri 03:59:14 AM 33.2136 -114.1647 99° East 514 592 37,000 50 Climbing Albuquerque Center
Fri 04:00:14 AM 33.1919 -113.9950 99° East 514 592 37,000  Level Albuquerque Center
Fri 04:01:14 AM 33.1700 -113.8261 99° East 514 592 37,000  Level Albuquerque Center
Fri 04:02:15 AM 33.1481 -113.6561 99° East 517 595 37,000 -50 Level Albuquerque Center
Fri 04:03:15 AM 33.1250 -113.4867 99° East 517 595 36,900  Descending Albuquerque Center
Fri 04:04:16 AM 33.1031 -113.3178 99° East 517 595 37,000 49 Climbing Albuquerque Center
Fri 04:05:17 AM 33.0803 -113.1481 99° East 517 595 37,000  Level Albuquerque Center
Fri 04:06:17 AM 33.0572 -112.9778 99° East 517 595 37,000  Level Albuquerque Center
Fri 04:07:17 AM 33.0325 -112.8089 100° East 517 595 37,000  Level Albuquerque Center
Fri 04:08:17 AM 33.0097 -112.6403 99° East 517 595 37,000  Level Albuquerque Center
Fri 04:09:17 AM 32.9861 -112.4761 100° East 507 583 37,000  Level Albuquerque Center
Fri 04:10:18 AM 32.9625 -112.3103 100° East 507 583 37,000  Level Albuquerque Center
Fri 04:11:18 AM 32.9378 -112.1303 99° East 507 583 37,000  Level Albuquerque Center
Fri 04:12:18 AM 32.9142 -111.9656 100° East 507 583 37,000  Level Albuquerque Center
Fri 04:13:18 AM 32.8900 -111.8017 100° East 507 583 37,000  Level Albuquerque Center
Fri 04:14:19 AM 32.8667 -111.6369 100° East 507 583 37,000  Level Albuquerque Center
Fri 04:15:19 AM 32.8425 -111.4714 100° East 508 585 37,000  Level Albuquerque Center
Fri 04:16:19 AM 32.8167 -111.3072 101° East 509 586 37,000  Level Albuquerque Center
Fri 04:17:19 AM 32.7919 -111.1414 100° East 509 586 37,000  Level Albuquerque Center
Fri 04:18:19 AM 32.7669 -110.9764 100° East 509 586 37,000  Level Albuquerque Center
Fri 04:19:20 AM 32.7419 -110.8125 100° East 509 586 37,000  Level Albuquerque Center
Fri 04:20:20 AM 32.7181 -110.6600 101° East 509 586 37,000  Level Albuquerque Center
Fri 04:21:20 AM 32.6925 -110.4972 101° East 507 583 37,000  Level Albuquerque Center
Fri 04:22:20 AM 32.6669 -110.3328 100° East 507 583 37,000  Level Albuquerque Center
Fri 04:23:20 AM 32.6417 -110.1711 100° East 505 581 37,000  Level Albuquerque Center
Fri 04:24:21 AM 32.6144 -110.0072 101° East 505 581 37,000  Level Albuquerque Center
Fri 04:25:21 AM 32.5883 -109.8442 101° East 505 581 37,000  Level Albuquerque Center
Fri 04:26:21 AM 32.5608 -109.6811 101° East 507 583 37,000  Level Albuquerque Center
Fri 04:27:21 AM 32.5317 -109.5194 102° East 507 583 37,000  Level Albuquerque Center
Fri 04:28:22 AM 32.5008 -109.3275 101° East 504 580 37,000  Level Albuquerque Center
Fri 04:29:22 AM 32.4731 -109.1653 101° East 504 580 37,000  Level Albuquerque Center
Fri 04:30:22 AM 32.4461 -109.0033 101° East 504 580 37,000  Level Albuquerque Center
Fri 04:31:22 AM 32.4189 -108.8431 101° East 504 580 37,000  Level Albuquerque Center
Fri 04:32:23 AM 32.3917 -108.6842 101° East 502 578 37,000  Level Albuquerque Center
Fri 04:33:23 AM 32.3644 -108.5244 101° East 502 578 37,000 -50 Level Albuquerque Center
Fri 04:34:23 AM 32.3372 -108.3767 102° East 502 578 36,900  Descending Albuquerque Center
Fri 04:35:23 AM 32.3103 -108.2161 101° East 501 577 37,000 50 Climbing Albuquerque Center
Fri 04:36:23 AM 32.2817 -108.0547 102° East 502 578 37,000  Level Albuquerque Center
Fri 04:37:24 AM 32.2525 -107.8942 102° East 502 578 37,000 -50 Level Albuquerque Center
Fri 04:38:24 AM 32.2233 -107.7331 102° East 502 578 36,900  Descending Albuquerque Center
Fri 04:39:24 AM 32.1953 -107.5708 102° East 504 580 37,000 50 Climbing Albuquerque Center
Fri 04:40:24 AM 32.1664 -107.4103 102° East 504 580 37,000 -50 Level Albuquerque Center
Fri 04:41:25 AM 32.1306 -107.2178 102° East 506 582 36,900 -50 Descending Albuquerque Center
Fri 04:42:25 AM 32.1019 -107.0583 102° East 506 582 36,900 50 Level Albuquerque Center
Fri 04:43:25 AM 32.0722 -106.8972 102° East 506 582 37,000 50 Climbing Albuquerque Center
Fri 04:44:25 AM 32.0419 -106.7386 103° East 505 581 37,000  Level Albuquerque Center
Fri 04:45:25 AM 32.0111 -106.5789 103° East 504 580 37,000  Level Albuquerque Center
Fri 04:46:26 AM 31.9806 -106.4203 103° East 503 579 37,000  Level Albuquerque Center
Fri 04:47:26 AM 31.9506 -106.2586 102° East 505 581 37,000 -50 Level Albuquerque Center
Fri 04:48:26 AM 31.9256 -106.0983 100° East 504 580 36,900  Descending Albuquerque Center
Fri 04:49:26 AM 31.8989 -105.9239 100° East 503 579 37,000  Climbing Albuquerque Center
Fri 04:50:26 AM 31.8772 -105.7847 100° East 503 579 36,900  Descending Albuquerque Center
Fri 04:51:27 AM 31.8519 -105.6236 100° East 503 579 37,000 50 Climbing Albuquerque Center
Fri 04:52:27 AM 31.8269 -105.4614 100° East 503 579 37,000  Level Albuquerque Center
Fri 04:53:27 AM 31.8028 -105.2975 100° East 507 583 37,000  Level Albuquerque Center
Fri 04:54:27 AM 31.7764 -105.1381 101° East 500 575 37,000  Level Albuquerque Center
Fri 04:55:28 AM 31.7517 -104.9750 100° East 501 577 37,000 -50 Level Albuquerque Center
Fri 04:56:28 AM 31.7256 -104.8133 101° East 501 577 36,900  Descending Albuquerque Center
Fri 04:57:28 AM 31.7006 -104.6536 100° East 501 577 37,000 50 Climbing Albuquerque Center
Fri 04:58:28 AM 31.6753 -104.4947 101° East 499 574 37,000  Level Albuquerque Center
Fri 04:59:28 AM 31.6486 -104.3361 101° East 496 571 37,000  Level Albuquerque Center
Fri 05:00:29 AM 31.6239 -104.1794 100° East 494 568 37,000 -50 Level Albuquerque Center
Fri 05:01:29 AM 31.5967 -104.0208 101° East 494 568 36,900 -50 Descending Albuquerque Center
Fri 05:02:29 AM 31.5708 -103.8619 101° East 495 570 36,900  Level Albuquerque Center
Fri 05:03:29 AM 31.5425 -103.7017 102° East 495 570 36,900 50 Level Albuquerque Center
Fri 05:04:29 AM 31.5108 -103.5456 103° East 494 568 37,000  Climbing Albuquerque Center
Fri 05:05:30 AM 31.4844 -103.3869 101° East 495 570 36,900  Descending Albuquerque Center
Fri 05:06:30 AM 31.4558 -103.2286 102° East 495 570 37,000 50 Climbing Albuquerque Center
Fri 05:07:30 AM 31.4300 -103.0689 101° East 495 570 37,000  Level Albuquerque Center
Fri 05:08:30 AM 31.4025 -102.9092 101° East 499 574 37,000 -50 Level Albuquerque Center
Fri 05:09:30 AM 31.3736 -102.7508 102° East 499 574 36,900 -50 Descending Albuquerque Center
Fri 05:10:31 AM 31.3453 -102.5933 102° East 499 574 36,900 50 Level Albuquerque Center
Fri 05:11:31 AM 31.3169 -102.4331 102° East 517 595 37,000 50 Climbing Albuquerque Center
Fri 05:12:31 AM 31.2875 -102.2756 102° East 510 587 37,000  Level Albuquerque Center
Fri 05:13:31 AM 31.2592 -102.1192 102° East 501 577 37,000  Level Albuquerque Center
Fri 05:14:09 AM 31.2397 -102.0022 101° East 504 580 37,000  Level Houston Center
Fri 05:15:09 AM 31.2103 -101.8433 102° East 504 580 37,000  Level Houston Center
Fri 05:16:10 AM 31.1808 -101.6853 102° East 504 580 37,000  Level Houston Center
Fri 05:17:10 AM 31.1497 -101.5275 103° East 502 578 37,000  Level Houston Center
Fri 05:18:10 AM 31.1217 -101.3692 102° East 502 578 37,000 -50 Level Houston Center
Fri 05:19:10 AM 31.0889 -101.2014 103° East 500 575 36,900  Descending Houston Center
Fri 05:20:11 AM 31.0583 -101.0453 103° East 498 573 37,000 50 Climbing Houston Center
Fri 05:21:11 AM 31.0272 -100.8892 103° East 497 572 37,000 -50 Level Houston Center
Fri 05:22:11 AM 30.9978 -100.7325 102° East 495 570 36,900 -50 Descending Houston Center
Fri 05:23:11 AM 30.9675 -100.5767 103° East 495 570 36,900  Level Houston Center
Fri 05:24:11 AM 30.9353 -100.4206 103° East 494 568 36,900 50 Level Houston Center
Fri 05:25:12 AM 30.9050 -100.2636 103° East 495 570 37,000 50 Climbing Houston Center
Fri 05:26:12 AM 30.8744 -100.1075 103° East 495 570 37,000  Level Houston Center
Fri 05:27:12 AM 30.8422 -99.9511 103° East 495 570 37,000 -50 Level Houston Center
Fri 05:28:12 AM 30.8106 -99.7947 103° East 495 570 36,900  Descending Houston Center
Fri 05:29:12 AM 30.7775 -99.6403 104° East 494 568 37,000  Climbing Houston Center
Fri 05:30:13 AM 30.7472 -99.4847 103° East 494 568 36,900 -50 Descending Houston Center
Fri 05:31:13 AM 30.7142 -99.3311 104° East 493 567 36,900 50 Level Houston Center
Fri 05:32:13 AM 30.6817 -99.1761 104° East 493 567 37,000 50 Climbing Houston Center
Fri 05:33:13 AM 30.6492 -99.0222 104° East 493 567 37,000  Level Houston Center
Fri 05:34:14 AM 30.6183 -98.8681 103° East 493 567 37,000  Level Houston Center
Fri 05:35:14 AM 30.5858 -98.7133 104° East 493 567 37,000  Level Houston Center
Fri 05:36:14 AM 30.5514 -98.5592 105° East 493 567 37,000  Level Houston Center
Fri 05:37:14 AM 30.5178 -98.4047 104° East 494 568 37,000  Level Houston Center
Fri 05:38:14 AM 30.4844 -98.2508 104° East 495 570 37,000  Level Houston Center
Fri 05:39:15 AM 30.4517 -98.0989 104° East 495 570 37,000  Level Houston Center
Fri 05:40:15 AM 30.4189 -97.9453 104° East 494 568 37,000  Level Houston Center
Fri 05:41:15 AM 30.3839 -97.7925 105° East 494 568 37,000  Level Houston Center
Fri 05:42:15 AM 30.3508 -97.6394 104° East 494 568 37,000  Level Houston Center
Fri 05:43:16 AM 30.3164 -97.4883 105° East 493 567 37,000  Level Houston Center
Fri 05:44:16 AM 30.2828 -97.3347 104° East 494 568 37,000  Level Houston Center
Fri 05:45:16 AM 30.2478 -97.1833 105° East 494 568 37,000  Level Houston Center
Fri 05:46:17 AM 30.2156 -97.0283 103° East 495 570 37,000  Level Houston Center
Fri 05:47:17 AM 30.1906 -96.8744 101° East 493 567 37,000  Level Houston Center
Fri 05:48:17 AM 30.1647 -96.7197 101° East 493 567 37,000  Level Houston Center
Fri 05:49:17 AM 30.1389 -96.5664 101° East 493 567 37,000 -50 Level Houston Center
Fri 05:50:18 AM 30.1092 -96.3969 101° East 492 566 36,900  Descending Houston Center
Fri 05:51:18 AM 30.0831 -96.2422 101° East 492 566 37,000 50 Climbing Houston Center
Fri 05:52:18 AM 30.0561 -96.0878 101° East 491 565 37,000  Level Houston Center
Fri 05:53:18 AM 30.0303 -95.9386 101° East 490 564 37,000  Level Houston Center
Fri 05:54:19 AM 30.0028 -95.7847 102° East 490 564 37,000  Level Houston Center
Fri 05:55:19 AM 29.9761 -95.6286 101° East 490 564 37,000  Level Houston Center
Fri 05:56:19 AM 29.9478 -95.4750 102° East 490 564 37,000  Level Houston Center
Fri 05:57:19 AM 29.9200 -95.3194 102° East 491 565 37,000  Level Houston Center
Fri 05:58:20 AM 29.8917 -95.1633 102° East 491 565 37,000  Level Houston Center
Fri 05:59:20 AM 29.8628 -95.0067 102° East 491 565 37,000  Level Houston Center
Fri 06:00:20 AM 29.8339 -94.8514 102° East 491 565 37,000  Level Houston Center
Fri 06:01:20 AM 29.8050 -94.6975 102° East 491 565 37,000  Level Houston Center
Fri 06:02:21 AM 29.7761 -94.5439 102° East 491 565 37,000  Level Houston Center
Fri 06:03:21 AM 29.7467 -94.3906 102° East 491 565 37,000  Level Houston Center
Fri 06:04:21 AM 29.7183 -94.2378 102° East 490 564 37,000  Level Houston Center
Fri 06:05:21 AM 29.6925 -94.1011 102° East 491 565 37,000  Level Houston Center
Fri 06:06:22 AM 29.6631 -93.9483 102° East 492 566 37,000 -50 Level Houston Center
Fri 06:07:22 AM 29.6281 -93.7658 102° East 492 566 36,900  Descending Houston Center
Fri 06:08:22 AM 29.5989 -93.6142 102° East 491 565 37,000 50 Climbing Houston Center
Fri 06:09:23 AM 29.5700 -93.4633 102° East 489 563 37,000  Level Houston Center
Fri 06:10:23 AM 29.5392 -93.3122 103° East 489 563 37,000  Level Houston Center
Fri 06:11:23 AM 29.5094 -93.1594 103° East 490 564 37,000 -50 Level Houston Center
Fri 06:12:23 AM 29.4794 -93.0089 103° East 490 564 36,900 -50 Descending Houston Center
Fri 06:13:24 AM 29.4492 -92.8569 103° East 490 564 36,900 50 Level Houston Center
Fri 06:14:24 AM 29.4194 -92.7061 103° East 489 563 37,000 50 Climbing Houston Center
Fri 06:15:24 AM 29.3875 -92.5556 104° East 488 562 37,000  Level Houston Center
Fri 06:16:25 AM 29.3575 -92.4014 103° East 495 570 37,000  Level Houston Center
Fri 06:17:25 AM 29.3250 -92.2494 104° East 494 568 37,000  Level Houston Center
Fri 06:18:25 AM 29.2939 -92.0953 103° East 495 570 37,000 -50 Level Houston Center
Fri 06:19:26 AM 29.2608 -91.9431 104° East 495 570 36,900 -50 Descending Houston Center
Fri 06:20:26 AM 29.2292 -91.7892 103° East 495 570 36,900 50 Level Houston Center
Fri 06:21:26 AM 29.1933 -91.6194 104° East 495 570 37,000  Climbing Houston Center
Fri 06:22:27 AM 29.1619 -91.4658 103° East 496 571 36,900  Descending Houston Center
Fri 06:23:27 AM 29.1278 -91.3117 104° East 497 572 37,000  Climbing Houston Center
Fri 06:24:27 AM 29.0947 -91.1581 104° East 498 573 36,900  Descending Houston Center
Fri 06:25:28 AM 29.0608 -91.0033 104° East 500 575 37,000 50 Climbing Houston Center
Fri 06:26:28 AM 29.0283 -90.8475 103° East 505 581 37,000 -50 Level Houston Center
Fri 06:27:28 AM 28.9942 -90.6917 104° East 505 581 36,900  Descending Houston Center
Fri 06:28:29 AM 28.9597 -90.5369 104° East 505 581 37,000 50 Climbing Houston Center
Fri 06:29:29 AM 28.9256 -90.3822 104° East 505 581 37,000  Level Houston Center
Fri 06:30:30 AM 28.8914 -90.2286 104° East 504 580 37,000  Level Houston Center
Fri 06:31:30 AM 28.8575 -90.0753 104° East 504 580 37,000 -50 Level Houston Center
Fri 06:32:30 AM 28.8231 -89.9225 104° East 504 580 36,900  Descending Houston Center
Fri 06:33:31 AM 28.7886 -89.7694 104° East 503 579 37,000 50 Climbing Houston Center
Fri 06:34:31 AM 28.7533 -89.6150 105° East 503 579 37,000  Level Houston Center
Fri 06:35:31 AM 28.7183 -89.4592 104° East 508 585 37,000  Level Houston Center
Fri 06:36:32 AM 28.6831 -89.3053 105° East 507 583 37,000  Level Houston Center
Fri 06:37:32 AM 28.6472 -89.1517 105° East 507 583 37,000 -50 Level Houston Center
Fri 06:38:33 AM 28.6111 -88.9992 105° East 504 580 36,900  Descending Houston Center
Fri 06:39:33 AM 28.5756 -88.8450 105° East 505 581 37,000 50 Climbing Houston Center
Fri 06:40:33 AM 28.5397 -88.6892 105° East 505 581 37,000 -50 Level Houston Center
Fri 06:41:34 AM 28.5031 -88.5339 105° East 510 587 36,900  Descending Houston Center
Fri 06:42:34 AM 28.4656 -88.3772 105° East 512 589 37,000 50 Climbing Houston Center
Fri 06:43:35 AM 28.4289 -88.2219 105° East 511 588 37,000 -50 Level Houston Center
Fri 06:44:35 AM 28.3881 -88.0572 106° East 512 589 36,900 -50 Descending Houston Center
Fri 06:45:35 AM 28.3458 -87.9033 107° East 511 588 36,900 50 Level Houston Center
Fri 06:46:36 AM 28.3022 -87.7517 108° East 510 587 37,000 50 Climbing Houston Center
Fri 06:47:36 AM 28.2575 -87.5997 108° East 511 588 37,000 -50 Level Houston Center
Fri 06:48:37 AM 28.2133 -87.4464 108° East 511 588 36,900  Descending Houston Center
Fri 06:49:37 AM 28.1689 -87.2942 108° East 511 588 37,000  Climbing Houston Center
Fri 06:50:37 AM 28.1233 -87.1422 109° East 511 588 36,900  Descending Houston Center
Fri 06:51:10 AM 28.0972 -87.0517 108° East 513 590 37,000 65 Climbing Jacksonville Center
Fri 06:52:10 AM 28.0503 -86.8947 109° East 518 596 37,000  Level Jacksonville Center
Fri 06:53:10 AM 28.0008 -86.7353 109° East 523 602 37,000  Level Jacksonville Center
Fri 06:54:10 AM 27.9553 -86.5786 108° East 516 594 37,000  Level Jacksonville Center
Fri 06:55:10 AM 27.9097 -86.4219 108° East 526 605 37,000 -50 Level Jacksonville Center
Fri 06:56:10 AM 27.8639 -86.2656 108° East 525 604 36,900  Descending Jacksonville Center
Fri 06:57:10 AM 27.8178 -86.1067 108° East 531 611 37,000 50 Climbing Jacksonville Center
Fri 06:58:10 AM 27.7714 -85.9506 109° East 525 604 37,000 -32 Level Jacksonville Center
Fri 07:00:17 AM 27.6717 -85.6003 108° East 512 589 36,900 -32 Descending Miami Center
Fri 07:01:17 AM 27.6219 -85.4608 112° Southeast 519 597 36,900 50 Level Miami Center
Fri 07:02:17 AM 27.5833 -85.3036 105° East 524 603 37,000  Climbing Miami Center
Fri 07:03:17 AM 27.5467 -85.1419 104° East 524 603 36,900  Descending Miami Center
Fri 07:04:17 AM 27.5081 -84.9825 105° East 531 611 37,000  Climbing Miami Center
Fri 07:05:17 AM 27.4731 -84.8211 104° East 531 611 36,900 -50 Descending Miami Center
Fri 07:06:17 AM 27.4361 -84.6622 105° East 531 611 36,900  Level Miami Center
Fri 07:07:17 AM 27.3906 -84.4978 107° East 531 611 36,900  Level Miami Center
Fri 07:08:17 AM 27.3533 -84.3319 104° East 541 623 36,900  Level Miami Center
Fri 07:09:17 AM 27.3178 -84.1733 104° East 541 623 36,900 50 Level Miami Center
Fri 07:10:17 AM 27.2739 -84.0094 107° East 541 623 37,000  Climbing Miami Center
Fri 07:11:17 AM 27.2358 -83.8486 105° East 541 623 36,900  Descending Miami Center
Fri 07:12:17 AM 27.1956 -83.6897 106° East 541 623 37,000  Climbing Miami Center
Fri 07:13:17 AM 27.1550 -83.5289 106° East 541 623 36,900  Descending Miami Center
Fri 07:14:17 AM 27.1142 -83.3703 106° East 541 623 37,000 -250 Climbing Miami Center
Fri 07:15:17 AM 27.0733 -83.2119 106° East 536 617 36,400 -800 Descending Miami Center
Fri 07:16:17 AM 27.0364 -83.0561 105° East 530 610 35,400 -950 Descending Miami Center
Fri 07:17:17 AM 26.9950 -82.9003 107° East 525 604 34,500 -950 Descending Miami Center
Fri 07:18:17 AM 26.9572 -82.7492 106° East 519 597 33,500 -1,200 Descending Miami Center
Fri 07:19:17 AM 26.9153 -82.5958 107° East 514 592 32,100 -1,450 Descending Miami Center
Fri 07:20:17 AM 26.8778 -82.4403 105° East 514 592 30,600 -1,700 Descending Miami Center
Fri 07:21:17 AM 26.8336 -82.2800 107° East 502 578 28,700 -1,900 Descending Miami Center
Fri 07:22:17 AM 26.7972 -82.1342 106° East 492 566 26,800 -2,100 Descending Miami Center
Fri 07:23:17 AM 26.7603 -82.0000 107° East 476 548 24,500 -2,300 Descending Miami Center
Fri 07:24:17 AM 26.7256 -81.8636 106° East 458 527 22,200 -2,300 Descending Miami Center
Fri 07:25:17 AM 26.6922 -81.7344 106° East 443 510 19,900 -1,600 Descending Miami Center
Fri 07:26:17 AM 26.6964 -81.6114 88° East 411 473 19,000 -450 Descending Miami Center
Fri 07:27:17 AM 26.7233 -81.4892 76° East 406 467 19,000 -850 Level Miami Center
Fri 07:28:17 AM 26.7522 -81.3625 76° East 411 473 17,300 -1,900 Descending Miami Center
Fri 07:29:17 AM 26.7808 -81.2450 75° East 404 465 15,200 -2,150 Descending Miami Center
Fri 07:30:17 AM 26.8072 -81.1297 76° East 390 449 13,000 -2,150 Descending Miami Center
Fri 07:31:17 AM 26.8231 -81.0164 81° East 366 421 10,900 -1,500 Descending Miami Center
Fri 07:32:17 AM 26.8347 -80.9050 83° East 366 421 10,000 -450 Descending Miami Center
Fri 07:33:17 AM 26.8206 -80.8114 100° East 344 396 10,000  Level Miami Center
Fri 07:34:17 AM 26.7836 -80.7078 112° Southeast 344 396 10,000  Level Miami Center
Fri 07:35:17 AM 26.7428 -80.5947 112° Southeast 349 402 10,000  Level Miami Center
Fri 07:36:17 AM 26.7056 -80.4936 112° Southeast 355 409 10,000  Level Miami Center
Fri 07:37:17 AM 26.6703 -80.3972 112° Southeast 350 403 10,000 -500 Level Miami Center
Fri 07:38:17 AM 26.6389 -80.3150 113° Southeast 319 367 9,000 -1,150 Descending Miami Center
Fri 07:39:17 AM 26.6094 -80.2350 112° Southeast 295 339 7,700 -1,350 Descending Miami Center
Fri 07:40:17 AM 26.5883 -80.1556 107° East 273 314 6,300 -1,600 Descending Miami Center
Fri 07:41:17 AM 26.5881 -80.0697 90° East 266 306 4,500 -1,800 Descending Miami Center

Login

Don't have an account? Register now (free) for customized features, flight alerts, and more!